Time;durP1;ratioP1;P1;durP2;ratioP2;P2;SDS_P1;SDS_P2;PMS_P1;PMS_P2;Temp;Humidity;BMP_temperature;BMP_pressure;BME280_temperature;BME280_humidity;BME280_pressure;Samples;Min_cycle;Max_cycle;Signal;HPM_P1;HPM_P2
2023/01/02 00:00:29;;;;;;;54.03;38.87;;;;;;;6.35;92.72;100955.94;5075990;28;20193;-57
2023/01/02 00:02:55;;;;;;;55.63;38.50;;;;;;;6.47;93.26;100983.06;5076280;28;20200;-58
2023/01/02 00:05:22;;;;;;;57.47;37.80;;;;;;;6.48;92.68;100977.16;5075889;28;20660;-58
2023/01/02 00:07:49;;;;;;;53.07;37.93;;;;;;;6.51;92.94;100984.97;5076021;28;20247;-57
2023/01/02 00:10:16;;;;;;;56.13;37.57;;;;;;;6.52;92.54;100984.19;5075793;28;20191;-57
2023/01/02 00:12:44;;;;;;;52.83;38.80;;;;;;;6.52;93.05;100985.88;5075736;28;20197;-58
2023/01/02 00:15:11;;;;;;;50.87;35.47;;;;;;;6.49;92.42;100978.91;5075533;28;20695;-58
2023/01/02 00:17:38;;;;;;;45.43;33.50;;;;;;;6.60;92.63;100987.16;5075490;28;20543;-58
2023/01/02 00:20:06;;;;;;;54.13;35.00;;;;;;;6.59;92.43;100994.75;5075632;28;20275;-58
2023/01/02 00:22:32;;;;;;;51.63;35.67;;;;;;;6.62;91.66;100994.94;5075729;28;20193;-58
2023/01/02 00:24:59;;;;;;;49.60;36.87;;;;;;;6.63;91.72;100997.56;5075664;28;20570;-58
2023/01/02 00:27:26;;;;;;;47.50;33.63;;;;;;;6.56;90.79;100992.91;5073619;28;20573;-58
2023/01/02 00:29:54;;;;;;;48.67;33.03;;;;;;;6.48;91.88;100994.16;5066596;28;20202;-57
2023/01/02 00:32:21;;;;;;;45.83;34.73;;;;;;;6.43;92.01;101001.53;5075051;28;20689;-58
2023/01/02 00:34:48;;;;;;;47.90;34.13;;;;;;;6.45;91.28;100999.09;5075192;28;20221;-57
2023/01/02 00:37:15;;;;;;;47.27;34.87;;;;;;;6.43;91.56;101006.66;5074916;28;20201;-58
2023/01/02 00:39:42;;;;;;;56.47;36.90;;;;;;;6.40;91.53;101001.38;5075148;28;20193;-57
2023/01/02 00:42:08;;;;;;;53.57;37.20;;;;;;;6.41;90.97;101000.59;5075170;28;20197;-58
2023/01/02 00:44:35;;;;;;;49.53;35.17;;;;;;;6.33;91.50;101013.69;5074851;28;20201;-58
2023/01/02 00:47:03;;;;;;;52.92;36.90;;;;;;;6.23;92.01;101007.22;5074685;28;20442;-58
2023/01/02 00:49:30;;;;;;;47.80;36.17;;;;;;;6.28;91.65;101007.47;5075162;28;20185;-58
2023/01/02 00:51:57;;;;;;;47.07;34.90;;;;;;;6.26;91.53;100999.69;5070386;28;20277;-58
2023/01/02 00:54:23;;;;;;;53.60;36.80;;;;;;;6.24;91.60;101003.84;5059408;28;20292;-58
2023/01/02 00:56:50;;;;;;;50.77;35.00;;;;;;;6.20;91.24;101001.94;5055175;28;20605;-58
2023/01/02 00:59:17;;;;;;;50.97;35.20;;;;;;;6.15;91.56;100998.25;5054920;28;20205;-58
2023/01/02 01:01:44;;;;;;;46.70;35.57;;;;;;;6.18;91.80;100998.38;5059439;28;20201;-58
2023/01/02 01:04:12;;;;;;;45.03;33.87;;;;;;;6.17;91.15;100994.09;5063562;28;20206;-58
2023/01/02 01:06:39;;;;;;;47.93;33.33;;;;;;;6.06;91.66;100997.69;5074902;28;20197;-58
2023/01/02 01:09:05;;;;;;;45.50;34.03;;;;;;;6.10;91.58;100991.97;5074639;28;20201;-58
2023/01/02 01:11:32;;;;;;;46.17;33.87;;;;;;;6.13;92.02;100998.91;5074944;28;20199;-58
2023/01/02 01:13:59;;;;;;;40.73;31.70;;;;;;;6.13;91.22;100989.59;5074269;28;20825;-57
2023/01/02 01:16:26;;;;;;;42.40;30.53;;;;;;;6.17;92.49;100985.56;5075122;28;20566;-58
2023/01/02 01:18:55;;;;;;;48.60;33.47;;;;;;;6.23;92.11;100983.34;5074575;28;20185;-58
2023/01/02 01:21:24;;;;;;;46.23;33.60;;;;;;;6.19;91.60;100986.50;5073245;28;20248;-58
2023/01/02 01:23:52;;;;;;;47.47;34.33;;;;;;;6.16;91.64;100976.13;5065341;28;20201;-57
2023/01/02 01:26:20;;;;;;;44.17;31.50;;;;;;;6.15;91.84;100985.47;5074185;28;20663;-58
2023/01/02 01:28:47;;;;;;;43.10;31.63;;;;;;;6.18;91.66;100985.63;5074510;28;20198;-57
2023/01/02 01:31:15;;;;;;;42.10;31.77;;;;;;;6.13;91.73;100981.94;5073599;28;20190;-57
2023/01/02 01:33:45;;;;;;;44.50;31.50;;;;;;;6.05;91.96;100975.50;5071366;28;20204;-57
2023/01/02 01:36:14;;;;;;;41.23;30.70;;;;;;;6.06;91.99;100969.63;5054081;28;20221;-57
2023/01/02 01:38:43;;;;;;;40.97;30.20;;;;;;;6.06;92.34;100956.88;5059021;28;20202;-58
2023/01/02 01:41:11;;;;;;;41.10;31.37;;;;;;;6.15;92.34;100961.63;5073905;28;20256;-58
2023/01/02 01:43:42;;;;;;;42.83;31.90;;;;;;;6.13;91.96;100958.97;5073887;28;20566;-57
2023/01/02 01:46:19;;;;;;;45.97;30.60;;;;;;;6.16;92.23;100953.16;5074351;28;20624;-57
2023/01/02 01:48:49;;;;;;;43.77;30.20;;;;;;;6.18;91.17;100949.91;5073951;28;20196;-57
2023/01/02 01:51:17;;;;;;;39.83;31.03;;;;;;;6.09;91.44;100946.84;5073949;28;20198;-57
2023/01/02 01:53:48;;;;;;;43.73;31.60;;;;;;;6.08;91.77;100939.97;5074406;28;20201;-57
2023/01/02 01:56:16;;;;;;;41.27;30.50;;;;;;;6.08;91.80;100934.88;5073673;28;20218;-57
2023/01/02 01:58:45;;;;;;;41.40;30.87;;;;;;;6.05;91.57;100939.78;5073972;28;20273;-57
2023/01/02 02:01:14;;;;;;;46.07;31.40;;;;;;;6.04;92.29;100937.16;5073400;28;20191;-57
2023/01/02 02:03:43;;;;;;;42.00;29.93;;;;;;;6.02;92.08;100939.63;5072502;28;20191;-58
2023/01/02 02:06:10;;;;;;;47.00;32.80;;;;;;;6.05;92.33;100933.81;5071935;28;20189;-57
2023/01/02 02:08:44;;;;;;;45.23;34.33;;;;;;;6.03;92.19;100933.72;5073644;28;20197;-57
2023/01/02 02:11:13;;;;;;;46.00;33.07;;;;;;;6.07;92.65;100943.31;5073744;28;20197;-57
2023/01/02 02:13:40;;;;;;;40.07;30.93;;;;;;;6.05;91.87;100936.34;5072390;28;20226;-57
2023/01/02 02:16:29;;;;;;;46.37;33.10;;;;;;;6.07;92.04;100943.31;5072984;28;20295;-57
2023/01/02 02:19:32;;;;;;;42.03;31.30;;;;;;;6.10;91.63;100937.53;5073817;28;20197;-57
2023/01/02 02:22:18;;;;;;;40.03;30.73;;;;;;;6.06;91.58;100936.47;5053394;28;20190;-57
2023/01/02 02:25:09;;;;;;;43.10;31.27;;;;;;;6.02;91.92;100939.63;5053884;28;20276;-57
2023/01/02 02:28:03;;;;;;;41.87;30.17;;;;;;;5.96;91.90;100938.41;5053152;28;20194;-58
2023/01/02 02:30:37;;;;;;;40.70;29.37;;;;;;;5.81;92.34;100940.91;5051550;28;20226;-57
2023/01/02 02:33:39;;;;;;;42.53;28.77;;;;;;;5.73;93.10;100945.56;5053901;28;20285;-57
2023/01/02 02:36:14;;;;;;;39.43;28.33;;;;;;;5.75;93.41;100949.06;5011466;28;20281;-57
2023/01/02 02:38:54;;;;;;;39.67;27.83;;;;;;;5.74;93.93;100941.34;5011267;28;20199;-57
2023/01/02 02:41:32;;;;;;;36.23;27.27;;;;;;;5.72;93.78;100927.59;5011232;28;20189;-57
2023/01/02 02:44:06;;;;;;;32.07;24.67;;;;;;;5.75;93.24;100932.88;5011550;28;20195;-57
2023/01/02 02:46:41;;;;;;;38.87;27.17;;;;;;;5.74;94.78;100931.16;5011159;28;20191;-57
2023/01/02 02:49:14;;;;;;;41.07;26.93;;;;;;;5.80;93.64;100926.38;5011056;28;20646;-57
2023/01/02 02:51:48;;;;;;;39.13;26.37;;;;;;;5.83;93.16;100913.81;5011006;28;20189;-57
2023/01/02 02:54:20;;;;;;;39.67;27.07;;;;;;;5.88;93.17;100922.63;5010896;28;20197;-58
2023/01/02 02:56:49;;;;;;;34.47;25.57;;;;;;;5.85;92.60;100909.72;5010821;28;20277;-57
2023/01/02 02:59:17;;;;;;;36.27;24.63;;;;;;;5.83;92.86;100913.81;5010875;28;20190;-58
2023/01/02 03:01:45;;;;;;;37.33;25.47;;;;;;;5.85;92.99;100915.69;5011044;28;20252;-58
2023/01/02 03:04:17;;;;;;;37.00;26.13;;;;;;;5.84;93.20;100908.81;5010836;28;20196;-59
2023/01/02 03:07:08;;;;;;;31.27;24.40;;;;;;;5.82;92.60;100914.63;5011278;28;20199;-57
2023/01/02 03:09:44;;;;;;;38.63;26.60;;;;;;;5.72;92.57;100907.22;5021667;28;20654;-57
2023/01/02 03:12:19;;;;;;;41.77;25.83;;;;;;;5.68;92.65;100915.50;5052441;28;20247;-57
2023/01/02 03:14:57;;;;;;;42.90;26.93;;;;;;;5.70;92.52;100914.78;5052502;28;20705;-58
2023/01/02 03:17:33;;;;;;;35.33;27.10;;;;;;;5.69;92.96;100915.56;5052224;28;20248;-57
2023/01/02 03:20:08;;;;;;;36.53;26.30;;;;;;;5.72;92.47;100919.97;5068373;28;20197;-57
2023/01/02 03:22:38;;;;;;;35.53;26.90;;;;;;;5.73;92.71;100916.63;5072526;28;20194;-58
2023/01/02 03:25:08;;;;;;;38.23;27.60;;;;;;;5.68;92.90;100918.03;5072268;28;20196;-57
2023/01/02 03:27:40;;;;;;;42.25;34.03;;;;;;;5.77;92.82;100910.91;5070868;28;20487;-57
2023/01/02 03:30:10;;;;;;;40.67;29.47;;;;;;;5.80;92.02;100906.88;5072835;28;20187;-57
2023/01/02 03:32:42;;;;;;;38.37;28.17;;;;;;;5.84;91.74;100907.94;5072250;28;20187;-58
2023/01/02 03:35:14;;;;;;;37.67;27.20;;;;;;;5.82;91.97;100907.81;5072212;28;20244;-57
2023/01/02 03:37:47;;;;;;;40.90;27.80;;;;;;;5.83;91.28;100917.25;5072066;28;20184;-57
2023/01/02 03:40:19;;;;;;;38.57;26.97;;;;;;;5.72;92.67;100913.19;5071962;28;20703;-57
2023/01/02 03:42:54;;;;;;;36.73;26.17;;;;;;;5.76;92.52;100914.25;5072448;28;20191;-58
2023/01/02 03:45:24;;;;;;;40.47;27.80;;;;;;;5.76;92.30;100906.63;5071995;28;20193;-58
2023/01/02 03:48:00;;;;;;;39.30;27.73;;;;;;;5.71;91.50;100906.31;5071989;28;20609;-58
2023/01/02 03:50:32;;;;;;;39.72;32.03;;;;;;;5.73;91.86;100911.53;5071030;28;20430;-58
2023/01/02 03:52:59;;;;;;;37.37;27.97;;;;;;;5.79;91.65;100920.44;5072114;28;20612;-57
2023/01/02 03:55:30;;;;;;;34.60;26.43;;;;;;;5.82;91.76;100910.38;5071463;28;20216;-57
2023/01/02 03:58:08;;;;;;;45.03;29.07;;;;;;;5.83;91.26;100914.69;5072266;28;20185;-57
2023/01/02 04:00:41;;;;;;;35.53;27.33;;;;;;;5.82;91.34;100924.81;5071848;28;20644;-57
2023/01/02 04:03:14;;;;;;;38.30;27.67;;;;;;;5.81;91.02;100934.13;5071782;28;20190;-57
2023/01/02 04:05:45;;;;;;;39.80;28.40;;;;;;;5.71;91.92;100921.63;5072207;28;20218;-57
2023/01/02 04:08:19;;;;;;;39.43;27.77;;;;;;;5.81;90.98;100935.81;5071368;28;20197;-57
2023/01/02 04:10:49;;;;;;;42.17;28.70;;;;;;;5.77;90.91;100944.06;5066318;28;20200;-57
2023/01/02 04:13:20;;;;;;;37.83;26.23;;;;;;;5.66;91.74;100940.88;5062080;28;20698;-58
2023/01/02 04:15:49;;;;;;;35.13;26.37;;;;;;;5.59;92.62;100930.25;5051926;28;20239;-57
2023/01/02 04:18:23;;;;;;;38.10;27.40;;;;;;;5.64;92.23;100933.94;5051476;28;20199;-57
2023/01/02 04:20:53;;;;;;;40.03;27.97;;;;;;;5.60;92.08;100937.13;5065176;28;20272;-58
2023/01/02 04:23:26;;;;;;;37.50;26.23;;;;;;;5.58;92.12;100936.13;5071804;28;20194;-58
2023/01/02 04:25:59;;;;;;;37.67;27.00;;;;;;;5.63;92.48;100939.84;5071450;28;20185;-57
2023/01/02 04:28:29;;;;;;;38.95;31.13;;;;;;;5.58;92.58;100929.34;5071015;28;20843;-58
2023/01/02 04:31:03;;;;;;;36.07;26.73;;;;;;;5.72;92.25;100942.91;5071648;28;20195;-58
2023/01/02 04:33:35;;;;;;;34.23;24.60;;;;;;;5.74;92.19;100936.25;5071154;28;20190;-58
2023/01/02 04:36:08;;;;;;;32.43;23.23;;;;;;;5.66;92.11;100930.69;5071502;28;20227;-57
2023/01/02 04:38:34;;;;;;;35.63;23.57;;;;;;;5.66;91.66;100930.69;5073719;28;20185;-57
2023/01/02 04:41:02;;;;;;;34.27;24.77;;;;;;;5.61;91.96;100924.44;5075142;28;20201;-57
2023/01/02 04:43:29;;;;;;;33.37;24.63;;;;;;;5.54;91.95;100929.97;5075219;28;20190;-57
2023/01/02 04:45:55;;;;;;;31.80;24.43;;;;;;;5.50;92.69;100922.03;5074870;28;20243;-57
2023/01/02 04:48:22;;;;;;;32.37;24.10;;;;;;;5.41;92.56;100921.53;5075276;28;20190;-57
2023/01/02 04:50:51;;;;;;;38.93;28.30;;;;;;;5.43;92.46;100922.50;5074561;28;20499;-58
2023/01/02 04:53:17;;;;;;;35.53;25.93;;;;;;;5.41;93.14;100924.06;5074990;28;20187;-58
2023/01/02 04:55:44;;;;;;;37.93;26.67;;;;;;;5.34;93.05;100928.81;5075269;28;20223;-58
2023/01/02 04:58:11;;;;;;;35.23;27.90;;;;;;;5.34;93.48;100930.47;5073974;28;20449;-58
2023/01/02 05:00:38;;;;;;;33.27;25.63;;;;;;;5.28;92.71;100930.97;5074893;28;20268;-58
2023/01/02 05:03:05;;;;;;;31.40;23.40;;;;;;;5.06;93.50;100905.00;5074769;28;20221;-57
2023/01/02 05:05:32;;;;;;;32.27;23.23;;;;;;;5.12;92.60;100929.97;5075422;28;20198;-57
2023/01/02 05:08:00;;;;;;;33.50;24.40;;;;;;;4.96;93.35;100914.53;5074701;28;20194;-57
2023/01/02 05:10:27;;;;;;;31.63;23.67;;;;;;;5.01;93.59;100925.88;5074685;28;20201;-57
2023/01/02 05:12:53;;;;;;;31.67;24.30;;;;;;;4.99;93.69;100923.25;5067328;28;20197;-57
2023/01/02 05:15:20;;;;;;;32.43;24.03;;;;;;;4.97;94.39;100918.84;5056833;28;20233;-57
2023/01/02 05:17:47;;;;;;;31.40;23.83;;;;;;;4.91;94.26;100919.34;5054586;28;20194;-58
2023/01/02 05:20:14;;;;;;;32.70;23.67;;;;;;;5.00;94.03;100919.03;5054528;28;20215;-57
2023/01/02 05:25:31;;;;;;;31.60;24.87;;;;;;;5.03;93.07;100919.19;5054518;28;20239;-57
2023/01/02 05:27:58;;;;;;;32.80;24.60;;;;;;;5.00;93.00;100926.69;5058784;28;20193;-58
2023/01/02 05:30:24;;;;;;;39.50;31.88;;;;;;;5.02;94.11;100923.44;5066073;28;21257;-58
2023/01/02 05:32:51;;;;;;;37.37;27.73;;;;;;;4.98;92.71;100905.31;5073756;28;20198;-57
2023/01/02 05:35:18;;;;;;;35.90;26.40;;;;;;;5.04;93.04;100921.84;5055520;28;20730;-57
2023/01/02 05:37:45;;;;;;;34.87;26.23;;;;;;;5.02;92.58;100920.91;5054064;28;20249;-57
2023/01/02 05:40:12;;;;;;;41.97;26.93;;;;;;;5.05;92.36;100927.84;5054055;28;20726;-57
2023/01/02 05:42:40;;;;;;;38.03;26.43;;;;;;;5.01;92.40;100930.97;5054022;28;20195;-57
2023/01/02 05:45:08;;;;;;;33.63;24.23;;;;;;;5.04;93.04;100933.72;5054218;28;20199;-57
2023/01/02 05:47:35;;;;;;;33.23;24.23;;;;;;;5.09;92.88;100929.75;5054363;28;20206;-57
2023/01/02 05:50:01;;;;;;;34.70;25.47;;;;;;;5.05;92.56;100936.38;5068679;28;20206;-57
2023/01/02 05:52:28;;;;;;;35.72;26.38;;;;;;;5.06;93.13;100937.22;5055176;28;20435;-58
2023/01/02 05:54:55;;;;;;;28.83;23.97;;;;;;;5.02;92.95;100933.63;5053791;28;20655;-57
2023/01/02 05:57:22;;;;;;;31.97;22.90;;;;;;;4.99;92.82;100932.56;5053723;28;20220;-58
2023/01/02 05:59:50;;;;;;;29.93;22.83;;;;;;;4.93;92.56;100932.16;5053825;28;20207;-57
2023/01/02 06:02:17;;;;;;;32.00;24.23;;;;;;;4.99;92.43;100930.88;5053720;28;20192;-58
2023/01/02 06:04:43;;;;;;;34.73;25.90;;;;;;;4.99;92.24;100927.47;5053623;28;20221;-57
2023/01/02 06:07:10;;;;;;;32.83;24.20;;;;;;;5.03;92.31;100929.38;5053671;28;20199;-58
2023/01/02 06:09:37;;;;;;;36.00;25.43;;;;;;;5.06;91.95;100932.13;5053691;28;20188;-58
2023/01/02 06:12:04;;;;;;;34.97;25.03;;;;;;;5.08;92.01;100944.16;5053542;28;20189;-57
2023/01/02 06:14:31;;;;;;;35.53;25.83;;;;;;;5.03;91.22;100932.81;5053601;28;20764;-58
2023/01/02 06:16:59;;;;;;;38.23;26.57;;;;;;;5.05;91.97;100945.66;5053166;28;20215;-58
2023/01/02 06:19:26;;;;;;;38.13;27.43;;;;;;;5.04;92.12;100939.69;5053406;28;20268;-58
2023/01/02 06:21:52;;;;;;;35.70;25.83;;;;;;;5.09;92.71;100942.50;5053212;28;20235;-57
2023/01/02 06:24:19;;;;;;;35.07;26.07;;;;;;;5.05;92.46;100950.75;5053069;28;20198;-57
2023/01/02 06:26:46;;;;;;;32.27;22.03;;;;;;;5.07;93.01;100950.06;5053107;28;20198;-57
2023/01/02 06:29:14;;;;;;;30.33;20.57;;;;;;;5.10;92.89;100949.38;5053614;28;20252;-57
2023/01/02 06:31:40;;;;;;;33.23;22.10;;;;;;;5.13;93.07;100963.19;5053539;28;20279;-57
2023/01/02 06:34:09;;;;;;;36.70;23.07;;;;;;;5.16;93.29;100955.72;5052729;28;20278;-57
2023/01/02 06:36:36;;;;;;;29.43;22.33;;;;;;;5.23;93.68;100955.31;5052863;28;20240;-57
2023/01/02 06:39:03;;;;;;;34.10;23.90;;;;;;;5.22;93.66;100961.16;5053433;28;20194;-57
2023/01/02 06:41:30;;;;;;;31.50;24.00;;;;;;;5.48;92.77;100961.88;5052967;28;20237;-58
2023/01/02 06:43:56;;;;;;;31.20;23.10;;;;;;;6.54;91.87;100959.63;5067283;28;20197;-58
2023/01/02 06:46:24;;;;;;;37.10;23.87;;;;;;;6.61;86.45;100963.41;5064953;28;20563;-60
2023/01/02 06:48:51;;;;;;;32.63;24.13;;;;;;;6.36;85.38;100975.59;5066841;28;20191;-57
2023/01/02 06:51:22;;;;;;;38.83;25.13;;;;;;;6.12;86.18;100982.75;5072510;28;20652;-57
2023/01/02 06:53:49;;;;;;;35.77;27.10;;;;;;;6.24;87.30;100978.31;5072433;28;20521;-56
2023/01/02 06:56:18;;;;;;;33.60;25.50;;;;;;;7.00;85.53;100975.78;5066402;28;20227;-57
2023/01/02 06:58:45;;;;;;;30.47;24.07;;;;;;;7.78;80.53;100982.44;5057300;28;20247;-59
2023/01/02 07:01:13;;;;;;;35.47;25.30;;;;;;;7.45;78.47;100995.25;5066387;28;20193;-56
2023/01/02 07:03:40;;;;;;;32.43;25.03;;;;;;;6.99;79.06;100981.69;5070733;28;20692;-58
2023/01/02 07:06:09;;;;;;;33.77;24.60;;;;;;;6.75;80.91;101002.47;5069351;28;20566;-58
2023/01/02 07:08:37;;;;;;;32.40;23.00;;;;;;;6.39;82.10;101004.72;5067265;28;20216;-58
2023/01/02 07:11:09;;;;;;;28.83;19.43;;;;;;;6.20;83.76;101003.59;5071869;28;20256;-58
2023/01/02 07:13:36;;;;;;;29.07;20.57;;;;;;;6.26;84.83;101004.81;5069553;28;20195;-58
2023/01/02 07:16:04;;;;;;;27.67;21.90;;;;;;;6.49;85.28;100995.91;5071745;28;20195;-57
2023/01/02 07:18:31;;;;;;;30.13;24.17;;;;;;;6.44;84.39;100995.66;5071624;28;22089;-58
2023/01/02 07:20:58;;;;;;;37.10;22.37;;;;;;;6.40;84.86;101003.91;5064892;28;20225;-57
2023/01/02 07:23:25;;;;;;;29.10;22.27;;;;;;;6.33;85.19;100999.28;5052096;28;20257;-58
2023/01/02 07:25:55;;;;;;;27.33;21.40;;;;;;;6.31;85.68;100998.31;5052171;28;20260;-58
2023/01/02 07:28:22;;;;;;;34.45;27.67;;;;;;;6.31;85.99;100994.88;5051129;28;20435;-57
2023/01/02 07:30:49;;;;;;;50.03;35.50;;;;;;;6.39;86.44;101004.72;5055656;28;20196;-58
2023/01/02 07:33:16;;;;;;;39.93;29.23;;;;;;;6.39;86.38;100991.97;5067031;28;20613;-58
2023/01/02 07:35:44;;;;;;;37.80;27.77;;;;;;;6.46;85.72;100994.06;5071447;28;20235;-59
2023/01/02 07:38:11;;;;;;;29.73;21.87;;;;;;;6.52;86.55;100993.53;5071282;28;20693;-58
2023/01/02 07:40:38;;;;;;;30.77;23.40;;;;;;;6.58;86.16;100991.31;5071343;28;20293;-57
2023/01/02 07:43:06;;;;;;;31.13;22.50;;;;;;;6.63;85.80;100992.44;5071352;28;20680;-57
2023/01/02 07:45:33;;;;;;;29.50;21.47;;;;;;;6.73;85.71;100983.66;5068711;28;20187;-58
2023/01/02 07:48:00;;;;;;;28.93;21.47;;;;;;;6.83;85.93;100979.13;5071238;28;20240;-58
2023/01/02 07:50:28;;;;;;;26.90;21.53;;;;;;;6.69;85.55;100934.06;5071204;28;20195;-58
2023/01/02 07:52:54;;;;;;;30.20;21.60;;;;;;;7.04;85.24;100981.94;5071490;28;20187;-58
2023/01/02 07:55:21;;;;;;;27.87;21.93;;;;;;;7.08;85.49;100966.00;5071187;28;20572;-57
2023/01/02 07:57:48;;;;;;;28.17;21.60;;;;;;;7.20;84.93;100966.63;5070906;28;20285;-57
2023/01/02 08:00:18;;;;;;;26.63;22.20;;;;;;;7.33;84.35;100976.72;5071233;28;20187;-58
2023/01/02 08:02:45;;;;;;;27.90;21.70;;;;;;;7.41;84.30;100972.88;5071203;28;20247;-58
2023/01/02 08:05:12;;;;;;;29.97;21.60;;;;;;;7.51;84.54;100976.78;5070160;28;20193;-58
2023/01/02 08:07:39;;;;;;;32.47;23.17;;;;;;;7.61;83.83;100972.22;5055761;28;20634;-57
2023/01/02 08:10:06;;;;;;;29.33;22.57;;;;;;;7.72;83.57;100967.66;5065126;28;20575;-57
2023/01/02 08:12:33;;;;;;;31.23;23.73;;;;;;;7.83;83.50;100970.78;5052291;28;20650;-58
2023/01/02 08:15:00;;;;;;;39.40;28.80;;;;;;;7.87;82.79;100970.09;5061762;28;20237;-58
2023/01/02 08:17:29;;;;;;;45.73;31.30;;;;;;;7.95;82.80;100968.81;5075612;28;20217;-58
2023/01/02 08:19:56;;;;;;;36.93;28.80;;;;;;;8.06;82.38;100967.66;5074940;28;20266;-58
2023/01/02 08:22:23;;;;;;;42.20;29.80;;;;;;;8.08;81.96;100966.06;5074563;28;20188;-57
2023/01/02 08:24:50;;;;;;;31.13;23.43;;;;;;;8.09;81.95;100971.25;5075269;28;20213;-57
2023/01/02 08:27:16;;;;;;;30.20;20.37;;;;;;;8.07;81.61;100948.97;5075474;28;20298;-58
2023/01/02 08:29:43;;;;;;;28.90;22.40;;;;;;;8.27;81.20;100955.94;5075290;28;20658;-58
2023/01/02 08:32:10;;;;;;;28.13;20.37;;;;;;;8.36;80.68;100955.50;5075038;28;20196;-58
2023/01/02 08:34:38;;;;;;;29.10;20.53;;;;;;;8.39;80.25;100930.06;5075006;28;20184;-59
2023/01/02 08:37:05;;;;;;;28.83;20.10;;;;;;;8.61;79.93;100950.75;5068424;28;20218;-59
2023/01/02 08:39:32;;;;;;;25.37;20.60;;;;;;;8.53;79.05;100929.03;5059051;28;20273;-58
2023/01/02 08:41:58;;;;;;;30.53;22.67;;;;;;;8.65;78.19;100930.47;5069999;28;20202;-58
2023/01/02 08:44:25;;;;;;;29.20;23.48;;;;;;;8.84;77.99;100943.31;5073486;28;20460;-58
2023/01/02 08:46:52;;;;;;;26.57;20.87;;;;;;;9.01;76.95;100938.13;5074639;28;20581;-58
2023/01/02 08:49:19;;;;;;;28.47;22.30;;;;;;;9.13;76.81;100936.09;5074581;28;20199;-58
2023/01/02 08:51:47;;;;;;;30.85;24.08;;;;;;;9.20;76.52;100933.00;5074193;28;20891;-58
2023/01/02 08:54:14;;;;;;;30.03;22.17;;;;;;;9.33;76.02;100927.59;5074655;28;20631;-59
2023/01/02 08:56:41;;;;;;;28.70;21.17;;;;;;;9.40;75.41;100922.81;5074927;28;20223;-59
2023/01/02 08:59:09;;;;;;;30.23;22.13;;;;;;;9.45;74.78;100923.00;5074010;28;20191;-59
2023/01/02 09:01:37;;;;;;;35.50;24.17;;;;;;;9.47;74.29;100926.53;5074575;28;20260;-58
2023/01/02 09:04:05;;;;;;;37.50;23.63;;;;;;;9.43;74.08;100914.34;5074830;28;20198;-58
2023/01/02 09:06:34;;;;;;;30.63;23.03;;;;;;;9.32;74.32;100910.44;5073940;28;20187;-58
2023/01/02 09:09:03;;;;;;;32.53;24.27;;;;;;;9.24;74.94;100898.97;5074696;28;20202;-57
2023/01/02 09:11:33;;;;;;;31.17;24.73;;;;;;;9.35;74.81;100910.59;5074192;28;20256;-57
2023/01/02 09:14:00;;;;;;;30.07;23.20;;;;;;;9.21;74.54;100911.66;5072190;28;20224;-58
2023/01/02 09:16:28;;;;;;;28.20;20.70;;;;;;;9.23;74.46;100903.22;5073943;28;20222;-57
2023/01/02 09:18:57;;;;;;;26.10;20.23;;;;;;;9.28;74.52;100901.78;5071882;28;20190;-58
2023/01/02 09:21:24;;;;;;;24.87;19.33;;;;;;;9.31;73.73;100890.75;5073425;28;20253;-58
2023/01/02 09:23:50;;;;;;;25.20;19.80;;;;;;;9.41;73.13;100896.34;5073379;28;20262;-58
2023/01/02 09:26:19;;;;;;;45.73;31.50;;;;;;;9.34;73.65;100878.03;5073843;28;20191;-57
2023/01/02 09:28:46;;;;;;;32.13;24.97;;;;;;;9.48;73.52;100888.09;5073634;28;20208;-59
2023/01/02 09:31:15;;;;;;;37.20;28.30;;;;;;;9.41;73.42;100860.44;5072870;28;20204;-57
2023/01/02 09:33:44;;;;;;;29.13;23.60;;;;;;;9.69;73.04;100884.69;5073436;28;20191;-58
2023/01/02 09:36:13;;;;;;;33.57;23.33;;;;;;;9.63;72.86;100885.31;5073877;28;20241;-58
2023/01/02 09:38:40;;;;;;;29.60;23.03;;;;;;;9.68;72.95;100883.81;5073552;28;20340;-58
2023/01/02 09:41:13;;;;;;;31.20;23.57;;;;;;;9.53;73.48;100837.00;5074150;28;20272;-58
2023/01/02 09:43:45;;;;;;;35.50;25.10;;;;;;;9.82;73.50;100871.53;5073890;28;20574;-58
2023/01/02 09:46:28;;;;;;;34.97;25.87;;;;;;;9.86;73.67;100860.59;5074016;28;20188;-57
2023/01/02 09:48:55;;;;;;;35.10;23.10;;;;;;;9.92;73.09;100864.28;5073852;28;20359;-58
2023/01/02 09:51:22;;;;;;;31.65;26.00;;;;;;;10.07;72.03;100858.88;5072903;28;20456;-58
2023/01/02 09:53:48;;;;;;;30.17;24.30;;;;;;;10.16;71.55;100853.28;5073682;28;20211;-57
2023/01/02 09:56:21;;;;;;;37.73;23.00;;;;;;;10.31;71.00;100852.19;5074290;28;20573;-59
2023/01/02 09:58:55;;;;;;;30.20;21.23;;;;;;;10.33;70.58;100849.69;5070464;28;20261;-59
2023/01/02 10:01:28;;;;;;;31.90;23.03;;;;;;;10.36;70.05;100842.06;5066687;28;20222;-59
2023/01/02 10:04:05;;;;;;;31.17;23.10;;;;;;;10.40;69.76;100832.00;5053336;28;20196;-58
2023/01/02 10:06:37;;;;;;;34.50;26.23;;;;;;;10.44;69.80;100838.97;5063857;28;20195;-58
2023/01/02 10:09:12;;;;;;;46.17;29.03;;;;;;;10.57;70.15;100840.34;5053467;28;20188;-57
2023/01/02 10:11:56;;;;;;;42.87;31.23;;;;;;;10.71;69.65;100828.88;5053142;28;20198;-58
2023/01/02 10:14:33;;;;;;;41.67;31.17;;;;;;;10.82;69.33;100822.44;5052103;28;20285;-58
2023/01/02 10:17:02;;;;;;;35.90;29.13;;;;;;;10.90;68.72;100826.16;5052625;28;20196;-58
2023/01/02 10:19:42;;;;;;;37.17;27.77;;;;;;;11.04;68.57;100814.63;5052528;28;20274;-57
2023/01/02 10:22:13;;;;;;;38.33;28.70;;;;;;;11.12;67.99;100808.06;5059725;28;20211;-58
2023/01/02 10:24:47;;;;;;;34.50;24.67;;;;;;;11.20;67.94;100811.81;5069024;28;20198;-58
2023/01/02 10:27:18;;;;;;;46.77;26.87;;;;;;;11.31;68.27;100808.72;5072665;28;20199;-58
2023/01/02 10:29:50;;;;;;;32.73;24.57;;;;;;;11.44;67.22;100801.47;5066467;28;20221;-59
2023/01/02 10:32:20;;;;;;;32.43;25.60;;;;;;;11.50;66.66;100800.78;5052931;28;20254;-58
2023/01/02 10:35:09;;;;;;;31.73;24.73;;;;;;;11.59;66.61;100806.25;5069823;28;20230;-58
2023/01/02 10:37:36;;;;;;;35.20;24.33;;;;;;;11.64;66.13;100802.13;5069610;28;20207;-59
2023/01/02 10:40:04;;;;;;;33.37;24.23;;;;;;;11.74;65.66;100794.78;5071572;28;20194;-59
2023/01/02 10:42:32;;;;;;;27.77;21.50;;;;;;;11.83;65.22;100791.63;5071747;28;20758;-59
2023/01/02 10:45:00;;;;;;;27.83;22.13;;;;;;;11.70;65.42;100764.59;5069844;28;20237;-57
2023/01/02 10:47:34;;;;;;;34.30;23.33;;;;;;;11.94;65.19;100785.13;5072288;28;20187;-58
2023/01/02 10:50:01;;;;;;;26.97;21.23;;;;;;;11.99;65.67;100782.66;5072134;28;20203;-58
2023/01/02 10:52:33;;;;;;;25.63;20.20;;;;;;;12.03;65.46;100777.66;5072168;28;20192;-58
2023/01/02 10:55:01;;;;;;;25.47;19.93;;;;;;;12.07;65.59;100771.78;5073060;28;20195;-58
2023/01/02 10:57:39;;;;;;;27.70;21.17;;;;;;;12.11;65.17;100776.22;5072138;28;20302;-58
2023/01/02 11:00:26;;;;;;;23.23;19.23;;;;;;;12.16;65.42;100771.19;5072309;28;20620;-58
2023/01/02 11:02:54;;;;;;;23.13;19.73;;;;;;;12.21;64.97;100777.34;5071982;28;20199;-58
2023/01/02 11:05:23;;;;;;;21.03;17.87;;;;;;;12.07;64.86;100748.59;5071547;28;20662;-59
2023/01/02 11:07:53;;;;;;;23.40;18.40;;;;;;;12.30;64.86;100759.59;5071725;28;20249;-58
2023/01/02 11:10:25;;;;;;;24.33;18.77;;;;;;;12.37;65.10;100762.38;5071926;28;20669;-58
2023/01/02 11:12:51;;;;;;;31.17;21.27;;;;;;;12.45;64.00;100757.44;5071960;28;20275;-58
2023/01/02 11:15:26;;;;;;;22.30;19.80;;;;;;;12.40;64.12;100748.72;5071443;28;20587;-57
2023/01/02 11:17:53;;;;;;;24.70;19.50;;;;;;;12.25;63.99;100730.25;5069882;28;20719;-58
2023/01/02 11:20:28;;;;;;;27.20;19.83;;;;;;;12.35;64.52;100729.66;5059428;28;20589;-58
2023/01/02 11:22:57;;;;;;;22.33;18.33;;;;;;;12.47;64.02;100745.47;5072205;28;20547;-59
2023/01/02 11:25:27;;;;;;;25.83;19.27;;;;;;;12.52;63.97;100740.47;5071762;28;20252;-59
2023/01/02 11:27:59;;;;;;;23.03;19.43;;;;;;;12.51;64.01;100738.69;5070874;28;20195;-59
2023/01/02 11:30:35;;;;;;;23.17;19.80;;;;;;;12.61;63.48;100735.56;5049278;28;20758;-59